createdAt,value
2023-07-11T00:01:15.132Z,85.06
2023-07-11T00:03:42.955Z,85.01
2023-07-11T00:06:17.484Z,85.73
2023-07-11T00:08:46.872Z,86.05
2023-07-11T00:11:19.260Z,85.76
2023-07-11T00:13:47.187Z,85.79
2023-07-11T00:16:16.792Z,85.42
2023-07-11T00:18:45.215Z,85.43
2023-07-11T00:21:13.278Z,85.45
2023-07-11T00:23:43.177Z,85.83
2023-07-11T00:26:12.472Z,85.96
2023-07-11T00:28:40.258Z,86.28
2023-07-11T00:31:08.300Z,86.41
2023-07-11T00:33:38.068Z,86.89
2023-07-11T00:36:07.849Z,87.38
2023-07-11T00:38:36.024Z,87.56
2023-07-11T00:41:03.881Z,87.87
2023-07-11T00:43:33.056Z,87.73
2023-07-11T00:46:05.965Z,88.37
2023-07-11T00:48:37.144Z,88.23
2023-07-11T00:51:07.515Z,88.68
2023-07-11T00:53:36.543Z,89.09
2023-07-11T00:56:08.193Z,88.45
2023-07-11T00:58:39.583Z,88.59
2023-07-11T01:01:08.050Z,88.61
2023-07-11T01:03:36.482Z,88.27
2023-07-11T01:06:04.936Z,88.17
2023-07-11T01:08:33.104Z,88.37
2023-07-11T01:11:00.903Z,88.26
2023-07-11T01:13:28.803Z,88.21
2023-07-11T01:15:57.890Z,88.09
2023-07-11T01:18:25.673Z,88.21
2023-07-11T01:20:53.577Z,88.18
2023-07-11T01:23:24.681Z,88.54
2023-07-11T01:25:52.448Z,88.17
2023-07-11T01:28:21.947Z,88.73
2023-07-11T01:30:49.952Z,89.01
2023-07-11T01:33:17.716Z,89.16
2023-07-11T01:35:45.464Z,89.33
2023-07-11T01:38:13.193Z,89.58
2023-07-11T01:40:42.348Z,89.18
2023-07-11T01:43:10.366Z,89.33
2023-07-11T01:45:38.252Z,89.79
2023-07-11T01:48:06.690Z,90.26
2023-07-11T01:50:34.535Z,90.18
2023-07-11T01:53:02.296Z,90.02
2023-07-11T01:55:30.094Z,90.00
2023-07-11T01:57:59.453Z,90.71
2023-07-11T02:00:27.241Z,91.01
2023-07-11T02:02:55.819Z,91.44
2023-07-11T02:05:24.421Z,91.24
2023-07-11T02:07:52.229Z,91.61
2023-07-11T02:10:20.025Z,91.89
2023-07-11T02:12:47.818Z,91.42
2023-07-11T02:15:16.974Z,91.29
2023-07-11T02:17:45.681Z,91.42
2023-07-11T02:20:13.777Z,91.54
2023-07-11T02:22:42.307Z,91.59
2023-07-11T02:25:10.528Z,91.94
2023-07-11T02:27:38.396Z,92.44
2023-07-11T02:30:07.432Z,92.96
2023-07-11T02:32:36.756Z,92.74
2023-07-11T02:35:04.667Z,92.36
2023-07-11T02:37:32.705Z,92.41
2023-07-11T02:40:00.478Z,92.85
2023-07-11T02:42:28.168Z,93.16
2023-07-11T02:44:55.918Z,92.85
2023-07-11T02:47:23.797Z,92.69
2023-07-11T02:49:52.905Z,93.35
2023-07-11T02:52:20.621Z,93.78
2023-07-11T02:54:48.519Z,93.46
2023-07-11T02:57:16.290Z,93.59
2023-07-11T02:59:44.031Z,93.58
2023-07-11T03:02:11.812Z,93.80
2023-07-11T03:04:39.600Z,93.71
2023-07-11T03:07:08.893Z,94.17
2023-07-11T03:09:38.216Z,94.26
2023-07-11T03:12:07.104Z,94.18
2023-07-11T03:14:34.879Z,93.93
2023-07-11T03:17:02.925Z,93.86
2023-07-11T03:19:30.719Z,93.93
2023-07-11T03:21:58.469Z,94.00
2023-07-11T03:24:27.599Z,93.64
2023-07-11T03:26:55.284Z,94.09
2023-07-11T03:29:22.994Z,94.27
2023-07-11T03:31:51.060Z,94.31
2023-07-11T03:34:19.052Z,93.99
2023-07-11T03:36:46.771Z,93.79
2023-07-11T03:39:14.677Z,93.98
2023-07-11T03:41:43.698Z,93.62
2023-07-11T03:44:12.426Z,93.43
2023-07-11T03:46:40.237Z,93.11
2023-07-11T03:49:08.381Z,92.90
2023-07-11T03:51:36.108Z,92.76
2023-07-11T03:54:04.182Z,92.34
2023-07-11T03:56:31.982Z,92.15
2023-07-11T03:59:01.294Z,91.76
2023-07-11T04:01:29.044Z,91.27
2023-07-11T04:03:56.997Z,90.96
2023-07-11T04:06:24.750Z,90.32
2023-07-11T04:08:52.473Z,89.88
2023-07-11T04:11:20.194Z,89.36
2023-07-11T04:13:47.989Z,89.06
2023-07-11T04:16:17.221Z,88.86
2023-07-11T04:18:44.922Z,88.39
2023-07-11T04:21:12.679Z,87.72
2023-07-11T04:23:40.354Z,86.32
2023-07-11T04:26:08.989Z,84.66
2023-07-11T04:28:36.769Z,84.90
2023-07-11T04:31:05.186Z,84.85
2023-07-11T04:33:34.466Z,84.06
2023-07-11T04:36:11.445Z,83.12
2023-07-11T04:38:39.800Z,82.27
2023-07-11T04:41:07.994Z,82.88
2023-07-11T04:43:35.987Z,82.38
2023-07-11T04:46:06.696Z,82.25
2023-07-11T04:48:37.639Z,82.05
2023-07-11T04:51:09.330Z,81.49
2023-07-11T04:53:37.343Z,81.38
2023-07-11T04:56:07.483Z,81.06
2023-07-11T04:58:36.570Z,81.03
2023-07-11T05:01:06.322Z,80.86
2023-07-11T05:03:34.260Z,79.61
2023-07-11T05:06:05.082Z,79.90
2023-07-11T05:08:33.572Z,79.86
2023-07-11T05:11:04.497Z,79.45
2023-07-11T05:13:33.480Z,79.11
2023-07-11T05:16:01.928Z,78.49
2023-07-11T05:18:30.140Z,78.05
2023-07-11T05:20:59.061Z,78.14
2023-07-11T05:23:31.244Z,77.19
2023-07-11T05:25:59.366Z,75.82
2023-07-11T05:28:27.277Z,75.24
2023-07-11T05:30:56.830Z,74.44
2023-07-11T05:33:24.981Z,73.26
2023-07-11T05:36:02.376Z,72.33
2023-07-11T05:38:31.466Z,70.95
2023-07-11T05:40:59.243Z,69.74
2023-07-11T05:43:27.101Z,68.96
2023-07-11T05:45:55.006Z,67.76
2023-07-11T05:48:23.069Z,65.77
2023-07-11T05:51:02.500Z,61.65
2023-07-11T05:53:31.675Z,61.92
2023-07-11T05:55:59.907Z,61.85
2023-07-11T05:58:28.279Z,61.30
2023-07-11T06:00:57.476Z,59.16
2023-07-11T06:03:26.649Z,59.31
2023-07-11T06:05:56.362Z,58.33
2023-07-11T06:08:24.132Z,58.58
2023-07-11T06:10:53.204Z,57.99
2023-07-11T06:13:20.848Z,57.47
2023-07-11T06:15:48.763Z,56.59
2023-07-11T06:18:16.435Z,57.11
2023-07-11T06:20:44.179Z,57.37
2023-07-11T06:23:11.949Z,57.51
2023-07-11T06:25:40.672Z,57.30
2023-07-11T06:28:09.804Z,57.13
2023-07-11T06:30:37.509Z,57.71
2023-07-11T06:33:05.340Z,57.49
2023-07-11T06:35:33.131Z,57.70
2023-07-11T06:38:00.831Z,57.92
2023-07-11T06:40:28.701Z,57.92
2023-07-11T06:42:56.382Z,57.70
2023-07-11T06:45:25.571Z,57.45
2023-07-11T06:47:53.482Z,56.88
2023-07-11T06:50:21.818Z,57.57
2023-07-11T06:52:50.768Z,57.62
2023-07-11T06:55:18.556Z,57.69
2023-07-11T06:57:46.341Z,58.08
2023-07-11T07:00:15.020Z,56.82
2023-07-11T07:02:44.171Z,57.28
2023-07-11T07:05:12.125Z,56.49
2023-07-11T07:07:39.932Z,57.71
2023-07-11T07:10:09.392Z,57.95
2023-07-11T07:12:37.179Z,57.30
2023-07-11T07:15:05.300Z,57.26
2023-07-11T07:17:33.120Z,56.79
2023-07-11T07:20:02.299Z,56.47
2023-07-11T07:22:30.166Z,56.14
2023-07-11T07:24:57.944Z,57.09
2023-07-11T07:27:28.842Z,56.49
2023-07-11T07:29:57.409Z,56.40
2023-07-11T07:32:25.238Z,56.06
2023-07-11T07:34:53.053Z,56.23
2023-07-11T07:37:22.172Z,56.11
2023-07-11T07:39:49.909Z,55.85
2023-07-11T07:42:17.614Z,56.32
2023-07-11T07:44:45.497Z,55.68
2023-07-11T07:47:13.317Z,56.59
2023-07-11T07:49:53.881Z,55.96
2023-07-11T07:52:24.350Z,55.68
2023-07-11T07:54:52.603Z,55.67
2023-07-11T07:57:20.567Z,55.53
2023-07-11T07:59:48.264Z,55.23
2023-07-11T08:02:16.039Z,55.13
2023-07-11T08:04:43.820Z,54.93
2023-07-11T08:07:11.629Z,54.88
2023-07-11T08:09:40.745Z,55.15
2023-07-11T08:12:09.980Z,55.45
2023-07-11T08:14:38.476Z,54.82
2023-07-11T08:17:07.816Z,55.35
2023-07-11T08:19:35.661Z,53.96
2023-07-11T08:22:03.466Z,54.88
2023-07-11T08:24:31.331Z,54.91
2023-07-11T08:27:00.510Z,54.71
2023-07-11T08:29:30.561Z,54.05
2023-07-11T08:31:59.437Z,54.06
2023-07-11T08:34:27.241Z,54.08
2023-07-11T08:36:55.367Z,53.42
2023-07-11T08:39:24.414Z,54.27
2023-07-11T08:41:53.997Z,53.59
2023-07-11T08:44:31.375Z,52.83
2023-07-11T08:47:04.554Z,53.65
2023-07-11T08:49:38.976Z,54.34
2023-07-11T08:52:10.830Z,53.36
2023-07-11T08:54:49.708Z,52.61
2023-07-11T08:57:20.368Z,52.02
2023-07-11T09:00:00.946Z,51.87
2023-07-11T09:02:36.763Z,51.57
2023-07-11T09:05:10.354Z,51.87
2023-07-11T09:07:40.562Z,51.76
2023-07-11T09:10:47.748Z,49.92
2023-07-11T09:13:30.988Z,50.32
2023-07-11T09:16:09.050Z,50.85
2023-07-11T09:18:47.490Z,50.40
2023-07-11T09:21:21.869Z,49.61
2023-07-11T09:24:05.757Z,49.87
2023-07-11T09:26:48.454Z,48.77
2023-07-11T09:29:17.337Z,48.37
2023-07-11T09:31:52.902Z,47.33
2023-07-11T09:34:25.225Z,47.11
2023-07-11T09:36:53.935Z,47.26
2023-07-11T09:39:31.654Z,46.81
2023-07-11T09:42:06.911Z,46.11
2023-07-11T09:44:34.655Z,46.57
2023-07-11T09:47:17.368Z,45.49
2023-07-11T09:49:47.041Z,46.64
2023-07-11T09:52:27.392Z,45.96
2023-07-11T09:55:07.724Z,46.25
2023-07-11T09:57:37.587Z,45.99
2023-07-11T10:02:38.974Z,45.80
2023-07-11T10:05:06.870Z,45.44
2023-07-11T10:07:35.573Z,44.65
2023-07-11T10:10:04.816Z,45.05
2023-07-11T10:12:32.704Z,44.62
2023-07-11T10:15:05.428Z,43.88
2023-07-11T10:17:35.260Z,43.95
2023-07-11T10:20:16.753Z,42.37
2023-07-11T10:22:50.056Z,43.07
2023-07-11T10:25:21.778Z,42.82
2023-07-11T10:27:56.011Z,42.35
2023-07-11T10:30:27.170Z,43.56
2023-07-11T10:33:08.495Z,42.74
2023-07-11T10:35:56.209Z,42.71
2023-07-11T10:38:30.121Z,42.53
2023-07-11T10:41:02.803Z,42.26
2023-07-11T10:43:34.144Z,41.72
2023-07-11T10:46:05.955Z,42.03
2023-07-11T10:48:40.297Z,42.31
2023-07-11T10:51:13.021Z,42.41
2023-07-11T10:53:44.954Z,42.70
2023-07-11T10:56:20.309Z,41.33
2023-07-11T10:58:49.783Z,41.57
2023-07-11T11:01:27.698Z,40.88
2023-07-11T11:04:06.793Z,41.00
2023-07-11T11:06:51.191Z,40.06
2023-07-11T11:09:24.183Z,39.43
2023-07-11T11:12:01.270Z,39.39
2023-07-11T11:14:42.690Z,38.49
2023-07-11T11:17:28.673Z,37.85
2023-07-11T11:20:11.428Z,38.29
2023-07-11T11:22:53.118Z,39.11
2023-07-11T11:25:30.750Z,40.03
2023-07-11T11:28:12.078Z,39.38
2023-07-11T11:30:50.003Z,39.92
2023-07-11T11:33:29.613Z,39.84
2023-07-11T11:36:19.941Z,40.60
2023-07-11T11:39:07.165Z,40.51
2023-07-11T11:41:38.558Z,39.97
2023-07-11T11:46:52.578Z,40.00
2023-07-11T11:49:41.533Z,39.84
2023-07-11T11:52:10.324Z,39.02
2023-07-11T11:54:44.061Z,38.47
2023-07-11T11:57:20.352Z,38.52
2023-07-11T11:59:48.114Z,37.38
2023-07-11T12:02:19.874Z,35.56
2023-07-11T12:05:03.875Z,36.22
2023-07-11T12:07:35.648Z,38.02
2023-07-11T12:10:20.650Z,37.79
2023-07-11T12:13:18.310Z,36.83
2023-07-11T12:15:50.823Z,37.90
2023-07-11T12:18:40.101Z,36.45
2023-07-11T12:21:19.593Z,38.03
2023-07-11T12:24:26.336Z,39.08
2023-07-11T12:26:38.474Z,39.64
2023-07-11T12:29:32.136Z,39.01
2023-07-11T12:32:45.778Z,38.75
2023-07-11T12:35:20.159Z,39.46
2023-07-11T12:38:05.096Z,38.43
2023-07-11T12:40:40.863Z,39.13
2023-07-11T12:43:17.256Z,37.57
2023-07-11T12:45:49.854Z,38.35
2023-07-11T12:48:19.942Z,36.78
2023-07-11T12:50:49.344Z,36.25
2023-07-11T12:53:17.791Z,35.81
2023-07-11T12:55:47.061Z,36.92
2023-07-11T12:58:22.581Z,36.79
2023-07-11T13:00:51.519Z,36.52
2023-07-11T13:03:25.784Z,36.10
2023-07-11T13:06:10.964Z,37.13
2023-07-11T13:08:44.352Z,36.72
2023-07-11T13:11:21.500Z,35.81
2023-07-11T13:13:51.438Z,36.57
2023-07-11T13:16:23.187Z,35.61
2023-07-11T13:18:52.816Z,35.92
2023-07-11T13:21:21.722Z,36.86
2023-07-11T13:23:50.867Z,37.12
2023-07-11T13:26:21.982Z,36.75
2023-07-11T13:29:04.764Z,37.46
2023-07-11T13:31:34.697Z,37.15
2023-07-11T13:34:04.473Z,37.42
2023-07-11T13:36:36.165Z,37.93
2023-07-11T13:39:07.392Z,38.13
2023-07-11T13:41:40.594Z,37.79
2023-07-11T13:44:17.947Z,38.52
2023-07-11T13:46:47.709Z,38.32
2023-07-11T13:49:21.248Z,38.34
2023-07-11T13:51:49.765Z,39.36
2023-07-11T13:54:22.233Z,39.66
2023-07-11T13:56:50.508Z,38.87
2023-07-11T14:01:55.292Z,38.49
2023-07-11T14:04:28.411Z,39.36
2023-07-11T14:06:56.435Z,39.38
2023-07-11T14:09:24.273Z,39.61
2023-07-11T14:11:52.009Z,39.28
2023-07-11T14:16:56.744Z,38.27
2023-07-11T14:19:26.737Z,38.46
2023-07-11T14:21:55.099Z,38.33
2023-07-11T14:24:22.873Z,38.87
2023-07-11T14:26:50.686Z,39.52
2023-07-11T14:29:25.495Z,39.06
2023-07-11T14:31:54.818Z,39.07
2023-07-11T14:34:24.168Z,39.86
2023-07-11T14:36:52.979Z,39.32
2023-07-11T14:39:22.328Z,38.73
2023-07-11T14:41:51.469Z,39.55
2023-07-11T14:44:25.117Z,39.50
2023-07-11T14:46:53.505Z,39.39
2023-07-11T14:49:22.058Z,38.66
2023-07-11T14:51:51.198Z,39.59
2023-07-11T14:54:20.438Z,38.39
2023-07-11T14:59:26.862Z,38.95
2023-07-11T15:01:55.833Z,39.02
2023-07-11T15:06:59.304Z,39.36
2023-07-11T15:14:39.451Z,38.67
2023-07-11T15:17:47.147Z,39.21
2023-07-11T15:20:16.979Z,39.45
2023-07-11T15:22:46.782Z,38.87
2023-07-11T15:25:17.282Z,38.57
2023-07-11T15:27:45.228Z,39.36
2023-07-11T15:30:18.514Z,38.53
2023-07-11T15:32:46.815Z,38.82
2023-07-11T15:35:16.389Z,39.21
2023-07-11T15:37:45.030Z,38.93
2023-07-11T15:40:20.648Z,38.54
2023-07-11T15:42:50.543Z,38.56
2023-07-11T15:45:24.370Z,39.05
2023-07-11T15:47:52.495Z,39.16
2023-07-11T15:50:22.873Z,39.12
2023-07-11T15:52:51.123Z,38.98
2023-07-11T15:55:20.542Z,39.52
2023-07-11T15:57:51.039Z,39.14
2023-07-11T16:00:22.703Z,39.98
2023-07-11T16:02:50.935Z,39.01
2023-07-11T16:05:20.176Z,39.58
2023-07-11T16:07:48.917Z,39.24
2023-07-11T16:10:23.862Z,39.12
2023-07-11T16:12:51.734Z,38.77
2023-07-11T16:15:21.644Z,39.42
2023-07-11T16:17:52.189Z,39.41
2023-07-11T16:20:22.336Z,38.94
2023-07-11T16:22:50.733Z,38.29
2023-07-11T16:25:21.522Z,39.01
2023-07-11T16:27:54.758Z,38.32
2023-07-11T16:30:26.222Z,38.60
2023-07-11T16:32:56.134Z,38.47
2023-07-11T16:35:27.861Z,38.10
2023-07-11T16:38:02.743Z,38.15
2023-07-11T16:40:31.834Z,37.23
2023-07-11T16:42:59.927Z,37.12
2023-07-11T16:45:34.106Z,36.15
2023-07-11T16:48:03.456Z,37.12
2023-07-11T16:50:34.629Z,36.74
2023-07-11T16:53:06.417Z,36.79
2023-07-11T16:55:34.810Z,36.63
2023-07-11T16:58:02.591Z,35.71
2023-07-11T17:00:31.728Z,35.79
2023-07-11T17:03:01.133Z,35.56
2023-07-11T17:05:29.278Z,35.41
2023-07-11T17:07:57.181Z,36.11
2023-07-11T17:10:25.016Z,35.52
2023-07-11T17:12:52.754Z,35.89
2023-07-11T17:15:21.419Z,35.41
2023-07-11T17:17:50.799Z,35.71
2023-07-11T17:20:21.678Z,34.90
2023-07-11T17:22:49.887Z,35.09
2023-07-11T17:25:19.484Z,34.90
2023-07-11T17:27:51.036Z,35.42
2023-07-11T17:30:21.213Z,34.96
2023-07-11T17:32:50.847Z,35.12
2023-07-11T17:35:19.130Z,34.97
2023-07-11T17:37:49.546Z,34.53
2023-07-11T17:40:20.144Z,34.70
2023-07-11T17:42:48.045Z,35.00
2023-07-11T17:45:20.377Z,35.01
2023-07-11T17:48:16.311Z,34.85
2023-07-11T17:50:46.797Z,34.91
2023-07-11T17:53:15.009Z,35.11
2023-07-11T17:55:42.972Z,35.27
2023-07-11T17:58:21.614Z,34.84
2023-07-11T18:00:50.004Z,34.89
2023-07-11T18:03:19.220Z,34.73
2023-07-11T18:05:47.991Z,34.80
2023-07-11T18:08:17.307Z,35.08
2023-07-11T18:10:46.292Z,35.13
2023-07-11T18:13:15.133Z,34.99
2023-07-11T18:15:45.978Z,34.99
2023-07-11T18:18:24.817Z,35.48
2023-07-11T18:20:53.195Z,35.72
2023-07-11T18:23:20.963Z,36.12
2023-07-11T18:25:49.216Z,36.90
2023-07-11T18:28:18.629Z,36.70
2023-07-11T18:30:46.937Z,36.95
2023-07-11T18:33:15.518Z,38.09
2023-07-11T18:35:46.260Z,38.20
2023-07-11T18:38:17.057Z,39.03
2023-07-11T18:40:46.682Z,39.19
2023-07-11T18:43:14.662Z,40.11
2023-07-11T18:45:45.113Z,40.64
2023-07-11T18:48:15.187Z,40.91
2023-07-11T18:50:45.111Z,42.06
2023-07-11T18:53:13.389Z,42.92
2023-07-11T18:55:44.552Z,43.10
2023-07-11T18:58:13.475Z,43.43
2023-07-11T19:00:45.037Z,44.23
2023-07-11T19:03:12.901Z,44.52
2023-07-11T19:05:41.224Z,45.72
2023-07-11T19:08:17.979Z,46.52
2023-07-11T19:10:45.837Z,46.85
2023-07-11T19:13:14.034Z,47.42
2023-07-11T19:15:44.397Z,47.99
2023-07-11T19:18:17.970Z,48.90
2023-07-11T19:20:46.000Z,49.38
2023-07-11T19:23:19.385Z,50.15
2023-07-11T19:25:49.911Z,50.09
2023-07-11T19:28:21.172Z,50.87
2023-07-11T19:30:51.194Z,51.32
2023-07-11T19:33:19.764Z,52.06
2023-07-11T19:35:51.226Z,52.56
2023-07-11T19:38:22.161Z,52.69
2023-07-11T19:40:50.352Z,53.14
2023-07-11T19:43:18.351Z,53.58
2023-07-11T19:45:48.432Z,53.94
2023-07-11T19:48:18.475Z,54.57
2023-07-11T19:50:47.599Z,54.76
2023-07-11T19:53:18.546Z,55.64
2023-07-11T19:55:49.503Z,56.03
2023-07-11T19:58:20.560Z,55.98
2023-07-11T20:00:49.532Z,56.43
2023-07-11T20:03:18.984Z,56.94
2023-07-11T20:05:48.117Z,57.11
2023-07-11T20:08:20.801Z,57.60
2023-07-11T20:10:52.732Z,57.29
2023-07-11T20:13:22.942Z,57.37
2023-07-11T20:15:53.335Z,58.15
2023-07-11T20:18:23.117Z,58.94
2023-07-11T20:20:52.778Z,58.79
2023-07-11T20:23:21.136Z,59.36
2023-07-11T20:25:55.389Z,59.78
2023-07-11T20:28:23.316Z,59.61
2023-07-11T20:30:53.088Z,59.88
2023-07-11T20:33:21.864Z,60.09
2023-07-11T20:35:51.581Z,60.17
2023-07-11T20:38:21.192Z,60.02
2023-07-11T20:40:51.426Z,60.36
2023-07-11T20:43:21.103Z,60.28
2023-07-11T20:45:50.356Z,60.68
2023-07-11T20:48:19.285Z,61.26
2023-07-11T20:50:47.907Z,62.11
2023-07-11T20:53:16.515Z,61.84
2023-07-11T20:55:50.930Z,62.01
2023-07-11T20:58:20.307Z,62.29
2023-07-11T21:00:49.818Z,62.46
2023-07-11T21:03:20.071Z,62.51
2023-07-11T21:05:49.533Z,63.00
2023-07-11T21:08:29.033Z,64.17
2023-07-11T21:10:58.519Z,64.01
2023-07-11T21:13:27.935Z,64.51
2023-07-11T21:15:56.801Z,64.38
2023-07-11T21:18:26.033Z,64.36
2023-07-11T21:20:55.833Z,64.59
2023-07-11T21:23:24.979Z,64.89
2023-07-11T21:25:54.215Z,65.01
2023-07-11T21:28:34.342Z,67.03
2023-07-11T21:31:05.592Z,65.84
2023-07-11T21:33:34.204Z,65.83
2023-07-11T21:36:03.336Z,65.63
2023-07-11T21:38:32.817Z,65.78
2023-07-11T21:41:01.665Z,66.36
2023-07-11T21:43:29.631Z,66.27
2023-07-11T21:45:59.359Z,66.37
2023-07-11T21:48:29.302Z,67.53
2023-07-11T21:50:58.454Z,67.23
2023-07-11T21:53:28.166Z,67.03
2023-07-11T21:56:00.441Z,67.07
2023-07-11T21:58:28.593Z,66.89
2023-07-11T22:00:56.427Z,67.03
2023-07-11T22:03:28.396Z,67.20
2023-07-11T22:05:58.783Z,67.41
2023-07-11T22:08:29.186Z,67.60
2023-07-11T22:10:57.690Z,67.63
2023-07-11T22:13:28.839Z,68.29
2023-07-11T22:15:57.222Z,68.00
2023-07-11T22:18:30.317Z,68.14
2023-07-11T22:20:58.975Z,68.19
2023-07-11T22:23:27.120Z,68.38
2023-07-11T22:25:54.964Z,68.56
2023-07-11T22:28:25.282Z,68.78
2023-07-11T22:30:56.481Z,68.84
2023-07-11T22:33:24.552Z,68.96
2023-07-11T22:35:53.715Z,69.16
2023-07-11T22:38:21.471Z,68.95
2023-07-11T22:40:50.829Z,68.83
2023-07-11T22:43:21.510Z,68.95
2023-07-11T22:45:52.558Z,69.01
2023-07-11T22:48:22.193Z,68.99
2023-07-11T22:50:51.876Z,69.24
2023-07-11T22:53:22.803Z,69.49
2023-07-11T22:55:52.854Z,69.58
2023-07-11T22:58:24.905Z,70.08
2023-07-11T23:00:53.107Z,70.43
2023-07-11T23:03:21.553Z,69.94
2023-07-11T23:05:49.453Z,69.76
2023-07-11T23:08:19.594Z,69.61
2023-07-11T23:10:49.238Z,69.38
2023-07-11T23:13:17.814Z,69.50
2023-07-11T23:15:49.762Z,69.76
2023-07-11T23:18:21.160Z,69.78
2023-07-11T23:20:52.790Z,69.80
2023-07-11T23:23:21.412Z,69.98
2023-07-11T23:25:50.818Z,70.15
2023-07-11T23:28:26.037Z,70.13
2023-07-11T23:30:55.373Z,70.00
2023-07-11T23:33:24.911Z,70.37
2023-07-11T23:35:54.765Z,70.62
2023-07-11T23:38:23.254Z,70.75
2023-07-11T23:40:54.342Z,71.48
2023-07-11T23:43:25.360Z,71.21
2023-07-11T23:45:54.706Z,71.44
2023-07-11T23:48:24.974Z,71.60
2023-07-11T23:50:55.398Z,71.34
2023-07-11T23:53:24.235Z,71.43
2023-07-11T23:56:00.377Z,71.62
2023-07-11T23:58:30.018Z,71.88
